Time;durP1;ratioP1;P1;durP2;ratioP2;P2;SDS_P1;SDS_P2;PMS_P1;PMS_P2;Temp;Humidity;BMP_temperature;BMP_pressure;BME280_temperature;BME280_humidity;BME280_pressure;Samples;Min_cycle;Max_cycle;Signal;HPM_P1;HPM_P2
2023/08/18 00:02:20;;;;;;;26.13;16.17;;;;;;;;;;5105885;28;20478;-65
2023/08/18 00:04:46;;;;;;;25.63;17.20;;;;;;;;;;5104637;28;20450;-64
2023/08/18 00:07:13;;;;;;;26.50;16.77;;;;;;;;;;5103152;28;20567;-65
2023/08/18 00:09:39;;;;;;;22.80;15.47;;;;;;;;;;5108873;28;21212;-64
2023/08/18 00:12:06;;;;;;;25.93;16.83;;;;;;;;;;5104411;28;20589;-64
2023/08/18 00:14:32;;;;;;;20.60;14.13;;;;;;;;;;5104078;28;20479;-64
2023/08/18 00:17:00;;;;;;;26.00;16.20;;;;;;;;;;5103497;28;20486;-64
2023/08/18 00:19:26;;;;;;;34.23;17.33;;;;;;;;;;5103480;28;20454;-64
2023/08/18 00:21:53;;;;;;;33.47;16.47;;;;;;;;;;5103046;28;20479;-64
2023/08/18 00:24:19;;;;;;;25.10;15.90;;;;;;;;;;5102326;28;20483;-64
2023/08/18 00:26:46;;;;;;;21.37;15.03;;;;;;;;;;5091663;28;20916;-65
2023/08/18 00:29:12;;;;;;;25.87;16.20;;;;;;;;;;5062695;28;20453;-64
2023/08/18 00:31:39;;;;;;;21.77;14.53;;;;;;;;;;5061971;28;20473;-64
2023/08/18 00:34:07;;;;;;;22.60;15.40;;;;;;;;;;5062361;28;20460;-64
2023/08/18 00:36:33;;;;;;;24.97;14.30;;;;;;;;;;5062767;28;20448;-65
2023/08/18 00:39:01;;;;;;;22.40;14.90;;;;;;;;;;5061598;28;20480;-64
2023/08/18 00:41:27;;;;;;;20.10;14.70;;;;;;;;;;5061914;28;20463;-64
2023/08/18 00:43:54;;;;;;;19.77;12.57;;;;;;;;;;5061925;28;20469;-65
2023/08/18 00:46:21;;;;;;;23.00;15.93;;;;;;;;;;5062367;28;20540;-64
2023/08/18 00:48:48;;;;;;;22.13;15.20;;;;;;;;;;5062187;28;20484;-64
2023/08/18 00:51:16;;;;;;;21.33;15.20;;;;;;;;;;5062384;28;20444;-64
2023/08/18 00:53:43;;;;;;;22.30;15.10;;;;;;;;;;5060717;28;20519;-65
2023/08/18 00:56:10;;;;;;;24.80;15.93;;;;;;;;;;5061933;28;20532;-65
2023/08/18 00:58:37;;;;;;;23.17;16.93;;;;;;;;;;5061937;28;20518;-65
2023/08/18 01:01:03;;;;;;;25.50;17.10;;;;;;;;;;5062549;28;20456;-65
2023/08/18 01:03:30;;;;;;;25.33;16.33;;;;;;;;;;5062000;28;20525;-65
2023/08/18 01:05:56;;;;;;;26.43;17.57;;;;;;;;;;5058195;28;20481;-65
2023/08/18 01:08:24;;;;;;;25.10;15.90;;;;;;;;;;5062472;28;20453;-65
2023/08/18 01:10:53;;;;;;;26.87;17.93;;;;;;;;;;5059692;28;20501;-65
2023/08/18 01:13:23;;;;;;;32.17;19.10;;;;;;;;;;5060590;28;20491;-64
2023/08/18 01:15:51;;;;;;;38.07;19.60;;;;;;;;;;5062082;28;20483;-64
2023/08/18 01:18:18;;;;;;;28.23;19.60;;;;;;;;;;5061412;28;20690;-64
2023/08/18 01:20:44;;;;;;;30.67;19.30;;;;;;;;;;5061877;28;20492;-64
2023/08/18 01:23:12;;;;;;;30.53;20.00;;;;;;;;;;5061719;28;20484;-65
2023/08/18 01:25:39;;;;;;;28.77;19.60;;;;;;;;;;5061280;28;20550;-65
2023/08/18 01:28:06;;;;;;;30.30;19.30;;;;;;;;;;5082835;28;21058;-64
2023/08/18 01:30:33;;;;;;;35.63;20.33;;;;;;;;;;5108002;28;20442;-65
2023/08/18 01:33:04;;;;;;;28.90;19.37;;;;;;;;;;5101612;28;20589;-65
2023/08/18 01:35:31;;;;;;;28.33;19.53;;;;;;;;;;5102147;28;20519;-64
2023/08/18 01:37:58;;;;;;;31.87;20.93;;;;;;;;;;5102133;28;20520;-65
2023/08/18 01:40:28;;;;;;;23.83;17.43;;;;;;;;;;5101295;28;20486;-65
2023/08/18 01:42:54;;;;;;;30.50;19.30;;;;;;;;;;5101374;28;20519;-65
2023/08/18 01:45:21;;;;;;;32.73;20.50;;;;;;;;;;5103616;28;20451;-65
2023/08/18 01:47:47;;;;;;;26.40;18.00;;;;;;;;;;5104526;28;20554;-65
2023/08/18 01:50:14;;;;;;;28.33;19.10;;;;;;;;;;5101970;28;20446;-65
2023/08/18 01:52:40;;;;;;;32.63;18.90;;;;;;;;;;5100605;28;21054;-64
2023/08/18 01:55:07;;;;;;;28.83;19.10;;;;;;;;;;5101244;28;20522;-65
2023/08/18 01:57:35;;;;;;;32.27;19.80;;;;;;;;;;5101771;28;20709;-65
2023/08/18 02:00:01;;;;;;;29.77;20.50;;;;;;;;;;5100566;28;20510;-65
2023/08/18 02:02:27;;;;;;;32.03;21.50;;;;;;;;;;5101350;28;20455;-64
2023/08/18 02:04:55;;;;;;;42.47;21.13;;;;;;;;;;5101993;28;20487;-65
2023/08/18 02:07:22;;;;;;;34.43;20.30;;;;;;;;;;5101332;28;20538;-64
2023/08/18 02:09:48;;;;;;;35.10;21.10;;;;;;;;;;5110821;28;20514;-64
2023/08/18 02:12:14;;;;;;;44.27;22.40;;;;;;;;;;5100601;28;20554;-65
2023/08/18 02:14:42;;;;;;;34.57;21.73;;;;;;;;;;5101373;28;20474;-64
2023/08/18 02:17:08;;;;;;;40.13;21.90;;;;;;;;;;5101052;28;20466;-65
2023/08/18 02:19:35;;;;;;;35.93;21.80;;;;;;;;;;5100438;28;20452;-64
2023/08/18 02:22:01;;;;;;;50.10;24.30;;;;;;;;;;5101138;28;20482;-64
2023/08/18 02:24:28;;;;;;;35.67;22.30;;;;;;;;;;5099961;28;20455;-64
2023/08/18 02:26:55;;;;;;;38.47;22.83;;;;;;;;;;5100870;28;20534;-64
2023/08/18 02:29:22;;;;;;;43.00;22.67;;;;;;;;;;5100882;28;20462;-64
2023/08/18 02:31:51;;;;;;;28.70;21.37;;;;;;;;;;5100050;28;20505;-64
2023/08/18 02:34:19;;;;;;;41.20;23.50;;;;;;;;;;5096338;28;20477;-63
2023/08/18 02:36:45;;;;;;;37.83;22.30;;;;;;;;;;5101158;28;20463;-64
2023/08/18 02:39:12;;;;;;;47.13;21.00;;;;;;;;;;5102915;28;20483;-64
2023/08/18 02:41:38;;;;;;;34.07;20.07;;;;;;;;;;5100665;28;20482;-63
2023/08/18 02:44:04;;;;;;;44.90;21.57;;;;;;;;;;5099813;28;20475;-64
2023/08/18 02:46:31;;;;;;;31.47;19.93;;;;;;;;;;5100644;28;21158;-64
2023/08/18 02:48:58;;;;;;;37.13;21.67;;;;;;;;;;5100515;28;20530;-64
2023/08/18 02:51:25;;;;;;;27.43;19.50;;;;;;;;;;5096708;28;20499;-63
2023/08/18 02:53:51;;;;;;;39.33;20.63;;;;;;;;;;5100193;28;20502;-64
2023/08/18 02:56:17;;;;;;;37.10;21.63;;;;;;;;;;5100848;28;20447;-64
2023/08/18 02:58:44;;;;;;;30.50;20.57;;;;;;;;;;5100420;28;20962;-64
2023/08/18 03:01:10;;;;;;;30.20;19.63;;;;;;;;;;5100693;28;20482;-64
2023/08/18 03:03:37;;;;;;;30.33;20.23;;;;;;;;;;5100253;28;20536;-64
2023/08/18 03:06:05;;;;;;;33.03;19.10;;;;;;;;;;5102327;28;20530;-64
2023/08/18 03:08:32;;;;;;;29.63;20.00;;;;;;;;;;5103879;28;20857;-64
2023/08/18 03:11:00;;;;;;;31.83;17.90;;;;;;;;;;5100014;28;20475;-64
2023/08/18 03:13:26;;;;;;;34.23;20.50;;;;;;;;;;5099742;28;20517;-64
2023/08/18 03:15:53;;;;;;;29.50;19.40;;;;;;;;;;5100190;28;20508;-64
2023/08/18 03:18:19;;;;;;;34.83;20.67;;;;;;;;;;5100274;28;20549;-64
2023/08/18 03:20:46;;;;;;;30.83;20.17;;;;;;;;;;5101054;28;20470;-64
2023/08/18 03:23:15;;;;;;;36.27;18.67;;;;;;;;;;5100070;28;20459;-64
2023/08/18 03:25:42;;;;;;;26.33;17.33;;;;;;;;;;5099537;28;20474;-64
2023/08/18 03:28:08;;;;;;;27.90;17.27;;;;;;;;;;5078552;28;20999;-64
2023/08/18 03:30:36;;;;;;;28.70;16.03;;;;;;;;;;5075504;28;20511;-64
2023/08/18 03:33:03;;;;;;;24.23;15.53;;;;;;;;;;5086587;28;20586;-64
2023/08/18 03:35:31;;;;;;;44.23;19.33;;;;;;;;;;5082051;28;20444;-64
2023/08/18 03:37:58;;;;;;;43.73;18.63;;;;;;;;;;5083459;28;20451;-64
2023/08/18 03:40:25;;;;;;;53.80;19.77;;;;;;;;;;5075229;28;20606;-64
2023/08/18 03:42:52;;;;;;;42.03;19.83;;;;;;;;;;5083094;28;20515;-63
2023/08/18 03:45:18;;;;;;;63.73;21.80;;;;;;;;;;5083552;28;20448;-64
2023/08/18 03:47:45;;;;;;;28.03;18.80;;;;;;;;;;5103947;28;20534;-64
2023/08/18 03:50:11;;;;;;;35.60;20.30;;;;;;;;;;5104248;28;20451;-63
2023/08/18 03:52:38;;;;;;;142.50;27.23;;;;;;;;;;5102757;28;20546;-71
2023/08/18 03:55:04;;;;;;;38.63;20.57;;;;;;;;;;5102260;28;20474;-70
2023/08/18 03:57:32;;;;;;;33.23;21.20;;;;;;;;;;5103196;28;20461;-71
2023/08/18 03:59:59;;;;;;;37.87;21.87;;;;;;;;;;5102794;28;20510;-71
2023/08/18 04:02:25;;;;;;;38.13;22.33;;;;;;;;;;5103665;28;20525;-71
2023/08/18 04:04:52;;;;;;;76.13;26.10;;;;;;;;;;5106232;28;20477;-70
2023/08/18 04:07:18;;;;;;;94.40;28.20;;;;;;;;;;5103581;28;20518;-70
2023/08/18 04:09:45;;;;;;;110.87;29.30;;;;;;;;;;5101737;28;20494;-70
2023/08/18 04:12:11;;;;;;;103.63;28.70;;;;;;;;;;5106750;28;20549;-70
2023/08/18 04:14:39;;;;;;;79.83;28.10;;;;;;;;;;5102361;28;20510;-70
2023/08/18 04:17:05;;;;;;;35.83;23.03;;;;;;;;;;5102613;28;20477;-70
2023/08/18 04:19:32;;;;;;;101.40;29.70;;;;;;;;;;5097355;28;20466;-70
2023/08/18 04:21:58;;;;;;;110.73;28.60;;;;;;;;;;5100632;28;20467;-71
2023/08/18 04:24:25;;;;;;;92.73;30.90;;;;;;;;;;5103172;28;20469;-71
2023/08/18 04:26:59;;;;;;;72.57;29.20;;;;;;;;;;5097473;28;20547;-70
2023/08/18 04:29:25;;;;;;;40.70;24.77;;;;;;;;;;5098672;28;20508;-63
2023/08/18 04:31:53;;;;;;;61.77;27.37;;;;;;;;;;5105285;28;20539;-63
2023/08/18 04:34:19;;;;;;;37.40;24.47;;;;;;;;;;5101682;28;20482;-63
2023/08/18 04:36:46;;;;;;;64.90;28.43;;;;;;;;;;5094414;28;20913;-63
2023/08/18 04:39:12;;;;;;;43.07;26.20;;;;;;;;;;5100965;28;20493;-63
2023/08/18 04:41:39;;;;;;;37.10;27.37;;;;;;;;;;5109638;28;20451;-63
2023/08/18 04:44:06;;;;;;;70.50;29.20;;;;;;;;;;5093679;28;20591;-63
2023/08/18 04:46:32;;;;;;;91.70;31.00;;;;;;;;;;5095019;28;20478;-63
2023/08/18 04:49:00;;;;;;;40.27;26.20;;;;;;;;;;5099047;28;20459;-63
2023/08/18 04:51:28;;;;;;;45.77;28.13;;;;;;;;;;5102892;28;20511;-63
2023/08/18 04:53:54;;;;;;;81.83;29.27;;;;;;;;;;5101640;28;20562;-63
2023/08/18 04:56:20;;;;;;;41.93;26.23;;;;;;;;;;5100594;28;20458;-63
2023/08/18 04:58:47;;;;;;;51.13;29.20;;;;;;;;;;5097891;28;20566;-63
2023/08/18 05:01:13;;;;;;;52.47;27.83;;;;;;;;;;5101217;28;20512;-63
2023/08/18 05:03:39;;;;;;;117.03;31.60;;;;;;;;;;5092240;28;20499;-63
2023/08/18 05:06:08;;;;;;;93.53;30.50;;;;;;;;;;5098554;28;20452;-63
2023/08/18 05:08:35;;;;;;;142.40;33.60;;;;;;;;;;5090588;28;20454;-63
2023/08/18 05:11:05;;;;;;;49.67;28.80;;;;;;;;;;5097177;28;20458;-61
2023/08/18 05:13:32;;;;;;;61.20;31.87;;;;;;;;;;5094351;28;20862;-63
2023/08/18 05:15:59;;;;;;;51.67;28.13;;;;;;;;;;5105764;28;20936;-63
2023/08/18 05:18:25;;;;;;;110.30;34.40;;;;;;;;;;5100103;28;20523;-63
2023/08/18 05:20:52;;;;;;;54.93;29.17;;;;;;;;;;5111317;28;20481;-63
2023/08/18 05:23:19;;;;;;;45.57;27.73;;;;;;;;;;5101221;28;20511;-63
2023/08/18 05:25:48;;;;;;;79.10;30.97;;;;;;;;;;5096849;28;20483;-62
2023/08/18 05:28:14;;;;;;;111.63;35.20;;;;;;;;;;5094150;28;20483;-62
2023/08/18 05:30:44;;;;;;;54.33;28.13;;;;;;;;;;5087979;28;20536;-62
2023/08/18 05:33:11;;;;;;;122.40;34.17;;;;;;;;;;5091993;28;20675;-62
2023/08/18 05:35:37;;;;;;;62.70;30.17;;;;;;;;;;5094708;28;20526;-63
2023/08/18 05:38:07;;;;;;;73.70;29.07;;;;;;;;;;5096052;28;20523;-63
2023/08/18 05:40:35;;;;;;;87.87;32.20;;;;;;;;;;5085425;28;20456;-63
2023/08/18 05:43:01;;;;;;;71.20;29.03;;;;;;;;;;5085221;28;20482;-63
2023/08/18 05:45:28;;;;;;;65.43;29.03;;;;;;;;;;5093384;28;20472;-63
2023/08/18 05:47:54;;;;;;;71.93;30.83;;;;;;;;;;5094307;28;20546;-63
2023/08/18 05:50:20;;;;;;;50.23;26.53;;;;;;;;;;5091088;28;20987;-63
2023/08/18 05:52:47;;;;;;;57.27;27.00;;;;;;;;;;5093116;28;20515;-63
2023/08/18 05:55:13;;;;;;;92.73;28.97;;;;;;;;;;5079772;28;20495;-63
2023/08/18 05:57:41;;;;;;;62.13;27.57;;;;;;;;;;5092297;28;20475;-63
2023/08/18 06:00:10;;;;;;;59.33;27.20;;;;;;;;;;5094134;28;20542;-63
2023/08/18 06:02:36;;;;;;;76.83;29.27;;;;;;;;;;5090468;28;20477;-63
2023/08/18 06:05:04;;;;;;;58.70;27.53;;;;;;;;;;5090426;28;20542;-63
2023/08/18 06:07:30;;;;;;;59.13;28.23;;;;;;;;;;5088028;28;20494;-63
2023/08/18 06:09:57;;;;;;;76.37;31.00;;;;;;;;;;5101740;28;21038;-63
2023/08/18 06:12:23;;;;;;;71.10;29.00;;;;;;;;;;5084180;28;20456;-63
2023/08/18 06:14:51;;;;;;;71.10;28.20;;;;;;;;;;5096981;28;20571;-63
2023/08/18 06:17:17;;;;;;;74.20;29.50;;;;;;;;;;5098055;28;20463;-63
2023/08/18 06:19:44;;;;;;;96.27;30.63;;;;;;;;;;5101816;28;20447;-63
2023/08/18 06:22:10;;;;;;;61.97;25.93;;;;;;;;;;5107232;28;20478;-63
2023/08/18 06:24:36;;;;;;;51.23;25.80;;;;;;;;;;5091186;28;20465;-63
2023/08/18 06:27:03;;;;;;;54.97;28.20;;;;;;;;;;5098533;28;20490;-63
2023/08/18 06:29:29;;;;;;;67.43;27.87;;;;;;;;;;5098855;28;20724;-63
2023/08/18 06:31:57;;;;;;;41.40;23.50;;;;;;;;;;5092365;28;20514;-63
2023/08/18 06:34:23;;;;;;;50.67;26.50;;;;;;;;;;5098475;28;20502;-63
2023/08/18 06:36:51;;;;;;;52.83;24.60;;;;;;;;;;5098875;28;20760;-64
2023/08/18 06:39:17;;;;;;;46.27;23.70;;;;;;;;;;5098625;28;20463;-63
2023/08/18 06:41:43;;;;;;;51.93;23.90;;;;;;;;;;5098118;28;20466;-63
2023/08/18 06:44:11;;;;;;;42.63;23.00;;;;;;;;;;5098194;28;20478;-63
2023/08/18 06:46:38;;;;;;;43.10;21.60;;;;;;;;;;5093715;28;20477;-64
2023/08/18 06:49:05;;;;;;;45.60;23.57;;;;;;;;;;5088006;28;20545;-63
2023/08/18 06:51:32;;;;;;;37.40;22.10;;;;;;;;;;5087493;28;20488;-63
2023/08/18 06:53:58;;;;;;;33.70;20.33;;;;;;;;;;5086005;28;20486;-63
2023/08/18 06:56:24;;;;;;;40.60;21.37;;;;;;;;;;5093335;28;20478;-63
2023/08/18 06:58:51;;;;;;;31.13;18.83;;;;;;;;;;5094175;28;20494;-64
2023/08/18 07:01:18;;;;;;;33.10;19.53;;;;;;;;;;5091023;28;20761;-64
2023/08/18 07:03:45;;;;;;;29.80;18.77;;;;;;;;;;5096815;28;20469;-62
2023/08/18 07:06:13;;;;;;;31.77;19.60;;;;;;;;;;5092933;28;21266;-62
2023/08/18 07:08:39;;;;;;;34.87;19.70;;;;;;;;;;5094555;28;21047;-62
2023/08/18 07:11:05;;;;;;;32.50;18.67;;;;;;;;;;5103249;28;20534;-63
2023/08/18 07:13:32;;;;;;;27.80;18.23;;;;;;;;;;5095456;28;20526;-63
2023/08/18 07:15:58;;;;;;;32.80;20.30;;;;;;;;;;5093100;28;20481;-63
2023/08/18 07:18:24;;;;;;;34.87;19.50;;;;;;;;;;5090256;28;20515;-63
2023/08/18 07:20:52;;;;;;;37.70;20.00;;;;;;;;;;5097149;28;20494;-63
2023/08/18 07:23:20;;;;;;;31.70;19.60;;;;;;;;;;5093828;28;20555;-63
2023/08/18 07:25:46;;;;;;;28.13;19.40;;;;;;;;;;5098383;28;20960;-63
2023/08/18 07:28:13;;;;;;;38.63;20.23;;;;;;;;;;5097555;28;20929;-63
2023/08/18 07:30:39;;;;;;;32.10;19.87;;;;;;;;;;5102348;28;20454;-62
2023/08/18 07:33:05;;;;;;;32.23;20.70;;;;;;;;;;5096470;28;20477;-63
2023/08/18 07:35:32;;;;;;;36.23;20.97;;;;;;;;;;5104232;28;21181;-62
2023/08/18 07:37:59;;;;;;;25.27;18.93;;;;;;;;;;5085671;28;20451;-63
2023/08/18 07:40:27;;;;;;;30.43;20.87;;;;;;;;;;5100136;28;20465;-63
2023/08/18 07:42:54;;;;;;;36.33;20.57;;;;;;;;;;5097375;28;20448;-63
2023/08/18 07:45:21;;;;;;;34.60;21.50;;;;;;;;;;5095897;28;20486;-63
2023/08/18 07:47:47;;;;;;;30.70;19.87;;;;;;;;;;5098199;28;20497;-63
2023/08/18 07:50:14;;;;;;;34.77;20.97;;;;;;;;;;5101071;28;20458;-63
2023/08/18 07:52:41;;;;;;;32.70;20.97;;;;;;;;;;5101529;28;20479;-63
2023/08/18 07:55:08;;;;;;;27.83;18.97;;;;;;;;;;5103820;28;20485;-63
2023/08/18 07:57:36;;;;;;;29.70;21.03;;;;;;;;;;5101991;28;20443;-62
2023/08/18 08:00:07;;;;;;;26.83;19.50;;;;;;;;;;5101353;28;20469;-64
2023/08/18 08:02:33;;;;;;;23.37;18.07;;;;;;;;;;5098377;28;20508;-63
2023/08/18 08:04:59;;;;;;;24.30;16.20;;;;;;;;;;5101829;28;20498;-63
2023/08/18 08:07:26;;;;;;;21.50;17.10;;;;;;;;;;5102052;28;20533;-63
2023/08/18 08:09:56;;;;;;;22.93;17.83;;;;;;;;;;5102233;28;20463;-62
2023/08/18 08:12:23;;;;;;;20.27;15.73;;;;;;;;;;5102397;28;20506;-63
2023/08/18 08:14:50;;;;;;;17.70;15.43;;;;;;;;;;5101744;28;20517;-63
2023/08/18 08:17:17;;;;;;;17.63;15.57;;;;;;;;;;5093658;28;20446;-63
2023/08/18 08:19:43;;;;;;;20.20;16.47;;;;;;;;;;5100308;28;20487;-63
2023/08/18 08:22:10;;;;;;;17.13;15.30;;;;;;;;;;5094122;28;20502;-63
2023/08/18 08:24:36;;;;;;;19.70;16.20;;;;;;;;;;5100163;28;20455;-63
2023/08/18 08:27:04;;;;;;;17.00;15.10;;;;;;;;;;5100095;28;20546;-63
2023/08/18 08:29:30;;;;;;;20.93;15.67;;;;;;;;;;5099775;28;20481;-63
2023/08/18 08:31:58;;;;;;;17.87;14.93;;;;;;;;;;5106392;28;20467;-63
2023/08/18 08:34:24;;;;;;;17.73;15.80;;;;;;;;;;5105739;28;20521;-64
2023/08/18 08:36:51;;;;;;;17.87;14.23;;;;;;;;;;5091097;28;20981;-64
2023/08/18 08:39:18;;;;;;;15.90;14.40;;;;;;;;;;5093368;28;20457;-64
2023/08/18 08:41:44;;;;;;;17.17;15.40;;;;;;;;;;5101187;28;20522;-64
2023/08/18 08:44:10;;;;;;;17.43;15.63;;;;;;;;;;5099020;28;20538;-63
2023/08/18 08:46:37;;;;;;;16.03;14.20;;;;;;;;;;5097525;28;20909;-63
2023/08/18 08:49:06;;;;;;;16.73;14.90;;;;;;;;;;5093961;28;20601;-63
2023/08/18 08:51:35;;;;;;;17.53;15.03;;;;;;;;;;5096940;28;20991;-64
2023/08/18 08:54:02;;;;;;;16.80;15.10;;;;;;;;;;5092045;28;20550;-63
2023/08/18 08:56:31;;;;;;;17.23;15.40;;;;;;;;;;5101728;28;20487;-64
2023/08/18 08:58:57;;;;;;;16.10;14.50;;;;;;;;;;5098394;28;20489;-62
2023/08/18 09:01:24;;;;;;;15.30;13.80;;;;;;;;;;5094478;28;21005;-62
2023/08/18 09:03:51;;;;;;;21.17;14.03;;;;;;;;;;5092968;28;20481;-62
2023/08/18 09:06:19;;;;;;;14.80;13.37;;;;;;;;;;5100506;28;20572;-62
2023/08/18 09:08:45;;;;;;;16.20;14.60;;;;;;;;;;5098089;28;20455;-63
2023/08/18 09:11:12;;;;;;;17.43;14.53;;;;;;;;;;5103308;28;20593;-62
2023/08/18 09:13:39;;;;;;;16.33;14.57;;;;;;;;;;5090378;28;21043;-63
2023/08/18 09:16:06;;;;;;;14.47;13.07;;;;;;;;;;5101034;28;20474;-63
2023/08/18 09:18:33;;;;;;;13.73;12.33;;;;;;;;;;5099634;28;21225;-63
2023/08/18 09:21:00;;;;;;;14.30;12.83;;;;;;;;;;5100668;28;20514;-63
2023/08/18 09:23:28;;;;;;;13.73;12.53;;;;;;;;;;5099355;28;20463;-63
2023/08/18 09:25:56;;;;;;;15.23;13.77;;;;;;;;;;5103668;28;20465;-62
2023/08/18 09:28:22;;;;;;;13.60;12.17;;;;;;;;;;5099479;28;20506;-65
2023/08/18 09:30:49;;;;;;;14.23;12.73;;;;;;;;;;5099554;28;20451;-65
2023/08/18 09:33:15;;;;;;;12.40;11.20;;;;;;;;;;5093841;28;20542;-66
2023/08/18 09:35:42;;;;;;;13.50;12.27;;;;;;;;;;5084789;28;20575;-65
2023/08/18 09:38:12;;;;;;;12.20;11.00;;;;;;;;;;5105870;28;20952;-65
2023/08/18 09:40:40;;;;;;;12.07;10.40;;;;;;;;;;5096898;28;20475;-63
2023/08/18 09:43:06;;;;;;;12.33;11.13;;;;;;;;;;5098423;28;20450;-63
2023/08/18 09:45:34;;;;;;;13.20;11.90;;;;;;;;;;5093167;28;20467;-63
2023/08/18 09:48:02;;;;;;;11.83;10.73;;;;;;;;;;5098818;28;20459;-63
2023/08/18 09:50:30;;;;;;;13.27;10.30;;;;;;;;;;5091371;28;21045;-63
2023/08/18 09:52:58;;;;;;;12.43;11.23;;;;;;;;;;5095483;28;20454;-63
2023/08/18 09:55:27;;;;;;;11.13;10.00;;;;;;;;;;5097333;28;20916;-63
2023/08/18 09:57:57;;;;;;;11.47;10.47;;;;;;;;;;5092762;28;20454;-63
2023/08/18 10:00:24;;;;;;;11.37;10.47;;;;;;;;;;5090107;28;20468;-63
2023/08/18 10:02:53;;;;;;;13.33;12.10;;;;;;;;;;5090058;28;20447;-63
2023/08/18 10:05:19;;;;;;;11.30;10.30;;;;;;;;;;5088549;28;20480;-63
2023/08/18 10:07:46;;;;;;;10.20;9.40;;;;;;;;;;5104016;28;20477;-63
2023/08/18 10:10:13;;;;;;;11.60;10.50;;;;;;;;;;5096344;28;20451;-63
2023/08/18 10:12:40;;;;;;;11.70;10.70;;;;;;;;;;5092848;28;20494;-63
2023/08/18 10:15:09;;;;;;;13.27;12.17;;;;;;;;;;5098793;28;20470;-63
2023/08/18 10:17:35;;;;;;;13.97;10.43;;;;;;;;;;5099191;28;20913;-63
2023/08/18 10:20:03;;;;;;;12.73;11.63;;;;;;;;;;5098709;28;20984;-63
2023/08/18 10:22:31;;;;;;;11.13;10.20;;;;;;;;;;5098491;28;20487;-65
2023/08/18 10:24:58;;;;;;;11.47;10.30;;;;;;;;;;5097601;28;20542;-64
2023/08/18 10:27:31;;;;;;;13.50;12.30;;;;;;;;;;5092310;28;20507;-63
2023/08/18 10:30:00;;;;;;;11.87;10.87;;;;;;;;;;5097871;28;20939;-64
2023/08/18 10:32:28;;;;;;;11.90;10.90;;;;;;;;;;5090603;28;20495;-64
2023/08/18 10:35:15;;;;;;;12.07;11.07;;;;;;;;;;5090415;28;20559;-64
2023/08/18 10:37:43;;;;;;;11.53;10.43;;;;;;;;;;5090091;28;20467;-64
2023/08/18 10:40:10;;;;;;;12.90;11.63;;;;;;;;;;5087796;28;20516;-64
2023/08/18 10:42:36;;;;;;;12.20;11.20;;;;;;;;;;5091333;28;20451;-64
2023/08/18 10:45:03;;;;;;;12.40;11.30;;;;;;;;;;5082824;28;20547;-64
2023/08/18 10:47:32;;;;;;;12.57;11.57;;;;;;;;;;5082285;28;20450;-64
2023/08/18 10:49:58;;;;;;;12.50;11.30;;;;;;;;;;5098393;28;20465;-64
2023/08/18 10:52:26;;;;;;;12.77;11.67;;;;;;;;;;5097971;28;20531;-64
2023/08/18 10:54:52;;;;;;;12.77;11.47;;;;;;;;;;5092977;28;20509;-65
2023/08/18 10:57:19;;;;;;;13.20;12.00;;;;;;;;;;5099883;28;20474;-64
2023/08/18 10:59:45;;;;;;;11.70;10.70;;;;;;;;;;5097732;28;20487;-64
2023/08/18 11:02:13;;;;;;;11.80;10.80;;;;;;;;;;5091381;28;20440;-64
2023/08/18 11:04:41;;;;;;;11.97;10.87;;;;;;;;;;5092893;28;20468;-64
2023/08/18 11:07:07;;;;;;;10.20;9.30;;;;;;;;;;5087085;28;20448;-64
2023/08/18 11:09:34;;;;;;;11.50;10.50;;;;;;;;;;5091270;28;20866;-64
2023/08/18 11:12:00;;;;;;;11.00;10.10;;;;;;;;;;5089157;28;20519;-64
2023/08/18 11:14:26;;;;;;;11.47;10.57;;;;;;;;;;5097961;28;20495;-64
2023/08/18 11:16:53;;;;;;;10.90;9.90;;;;;;;;;;5103485;28;20513;-64
2023/08/18 11:19:19;;;;;;;10.73;9.73;;;;;;;;;;5095788;28;20887;-64
2023/08/18 11:21:47;;;;;;;12.07;11.00;;;;;;;;;;5096354;28;20496;-64
2023/08/18 11:24:14;;;;;;;12.90;11.90;;;;;;;;;;5097375;28;20475;-65
2023/08/18 11:26:40;;;;;;;11.20;10.20;;;;;;;;;;5096896;28;20483;-65
2023/08/18 11:29:07;;;;;;;10.67;9.67;;;;;;;;;;5094909;28;20482;-65
2023/08/18 11:31:33;;;;;;;11.60;10.67;;;;;;;;;;5090039;28;20541;-65
2023/08/18 11:34:00;;;;;;;11.43;10.50;;;;;;;;;;5090744;28;21031;-65
2023/08/18 11:36:30;;;;;;;11.13;10.10;;;;;;;;;;5089278;28;20538;-64
2023/08/18 11:39:00;;;;;;;10.43;9.43;;;;;;;;;;5098633;28;20451;-64
2023/08/18 11:41:27;;;;;;;10.00;9.20;;;;;;;;;;5094035;28;20546;-64
2023/08/18 11:43:53;;;;;;;9.43;8.53;;;;;;;;;;5096648;28;21004;-65
2023/08/18 11:46:20;;;;;;;10.13;9.33;;;;;;;;;;5097831;28;20890;-64
2023/08/18 11:48:47;;;;;;;11.27;10.10;;;;;;;;;;5098038;28;20474;-64
2023/08/18 11:51:13;;;;;;;11.13;9.70;;;;;;;;;;5095465;28;20479;-65
2023/08/18 11:53:40;;;;;;;11.40;10.40;;;;;;;;;;5096078;28;21053;-64
2023/08/18 11:56:08;;;;;;;11.60;10.60;;;;;;;;;;5095747;28;20483;-64
2023/08/18 11:58:34;;;;;;;11.67;10.73;;;;;;;;;;5106051;28;20474;-64
2023/08/18 12:01:03;;;;;;;10.17;9.37;;;;;;;;;;5102087;28;20488;-64
2023/08/18 12:03:29;;;;;;;10.63;9.73;;;;;;;;;;5101383;28;20477;-65
2023/08/18 12:05:56;;;;;;;10.50;9.60;;;;;;;;;;5092892;28;20495;-64
2023/08/18 12:08:23;;;;;;;11.93;10.93;;;;;;;;;;5095967;28;20455;-65
2023/08/18 12:10:50;;;;;;;11.67;10.67;;;;;;;;;;5094345;28;20459;-64
2023/08/18 12:13:17;;;;;;;9.83;9.03;;;;;;;;;;5095555;28;20473;-64
2023/08/18 12:15:44;;;;;;;9.77;8.87;;;;;;;;;;5099812;28;20494;-64
2023/08/18 12:18:10;;;;;;;10.60;9.60;;;;;;;;;;5100718;28;20451;-65
2023/08/18 12:20:37;;;;;;;11.27;9.67;;;;;;;;;;5103645;28;20476;-64
2023/08/18 12:23:04;;;;;;;10.57;9.73;;;;;;;;;;5100750;28;20478;-65
2023/08/18 12:25:30;;;;;;;10.53;9.53;;;;;;;;;;5093678;28;20469;-64
2023/08/18 12:27:57;;;;;;;10.70;9.90;;;;;;;;;;5102063;28;20482;-65
2023/08/18 12:30:25;;;;;;;9.60;8.83;;;;;;;;;;5106636;28;20490;-64
2023/08/18 12:32:52;;;;;;;9.13;8.43;;;;;;;;;;5095534;28;20499;-65
2023/08/18 12:35:18;;;;;;;9.43;8.70;;;;;;;;;;5096164;28;20487;-64
2023/08/18 12:37:45;;;;;;;8.63;7.93;;;;;;;;;;5092216;28;20463;-64
2023/08/18 12:40:12;;;;;;;9.50;8.70;;;;;;;;;;5100583;28;20526;-64
2023/08/18 12:42:38;;;;;;;9.23;8.53;;;;;;;;;;5101524;28;20499;-64
2023/08/18 12:45:06;;;;;;;10.20;9.40;;;;;;;;;;5097720;28;20941;-65
2023/08/18 12:47:33;;;;;;;9.30;8.40;;;;;;;;;;5087205;28;20477;-64
2023/08/18 12:50:00;;;;;;;9.50;8.60;;;;;;;;;;5100217;28;20455;-64
2023/08/18 12:52:26;;;;;;;9.10;8.33;;;;;;;;;;5099924;28;20462;-64
2023/08/18 12:54:53;;;;;;;8.00;7.30;;;;;;;;;;5099616;28;20511;-64
2023/08/18 12:57:19;;;;;;;8.87;8.17;;;;;;;;;;5100244;28;20943;-65
2023/08/18 12:59:45;;;;;;;8.40;7.70;;;;;;;;;;5093017;28;20511;-64
2023/08/18 13:02:12;;;;;;;7.73;7.10;;;;;;;;;;5087740;28;20448;-65
2023/08/18 13:04:40;;;;;;;8.30;7.70;;;;;;;;;;5093062;28;20798;-65
2023/08/18 13:07:06;;;;;;;8.17;7.47;;;;;;;;;;5100310;28;20526;-64
2023/08/18 13:09:33;;;;;;;8.10;7.40;;;;;;;;;;5098909;28;20482;-64
2023/08/18 13:12:00;;;;;;;8.20;7.53;;;;;;;;;;5105556;28;20737;-65
2023/08/18 13:14:26;;;;;;;8.17;7.07;;;;;;;;;;5094221;28;20893;-66
2023/08/18 13:16:53;;;;;;;7.63;7.07;;;;;;;;;;5100704;28;20510;-66
2023/08/18 13:19:20;;;;;;;7.70;7.20;;;;;;;;;;5094458;28;20451;-65
2023/08/18 13:21:48;;;;;;;7.10;6.50;;;;;;;;;;5099215;28;20614;-65
2023/08/18 13:24:14;;;;;;;8.37;7.50;;;;;;;;;;5086874;28;20478;-65
2023/08/18 13:26:42;;;;;;;7.30;6.80;;;;;;;;;;5098828;28;20542;-65
2023/08/18 13:29:09;;;;;;;7.03;6.43;;;;;;;;;;5098827;28;21068;-65
2023/08/18 13:31:35;;;;;;;9.23;7.00;;;;;;;;;;5098386;28;20447;-64
2023/08/18 13:34:01;;;;;;;7.90;7.40;;;;;;;;;;5087965;28;20472;-64
2023/08/18 13:36:28;;;;;;;7.17;6.67;;;;;;;;;;5090373;28;20475;-64
2023/08/18 13:38:56;;;;;;;7.40;6.80;;;;;;;;;;5083109;28;20743;-64
2023/08/18 13:41:22;;;;;;;7.80;7.20;;;;;;;;;;5093482;28;20455;-65
2023/08/18 13:43:49;;;;;;;7.20;6.60;;;;;;;;;;5096227;28;20462;-64
2023/08/18 13:46:15;;;;;;;7.80;7.20;;;;;;;;;;5087798;28;20483;-65
2023/08/18 13:48:41;;;;;;;7.27;6.57;;;;;;;;;;5090516;28;20443;-64
2023/08/18 13:51:08;;;;;;;8.30;7.17;;;;;;;;;;5096291;28;20492;-65
2023/08/18 13:53:34;;;;;;;6.97;6.43;;;;;;;;;;5108055;28;20554;-64
2023/08/18 13:56:02;;;;;;;7.00;6.30;;;;;;;;;;5098697;28;20510;-64
2023/08/18 13:58:29;;;;;;;7.43;6.77;;;;;;;;;;5093786;28;20545;-64
2023/08/18 14:00:55;;;;;;;7.87;7.07;;;;;;;;;;5106886;28;20494;-65
2023/08/18 14:03:22;;;;;;;7.13;6.63;;;;;;;;;;5100175;28;20920;-65
2023/08/18 14:05:48;;;;;;;8.07;7.43;;;;;;;;;;5098104;28;20526;-65
2023/08/18 14:08:14;;;;;;;7.57;6.97;;;;;;;;;;5098574;28;20848;-65
2023/08/18 14:10:41;;;;;;;8.50;7.90;;;;;;;;;;5098440;28;20443;-65
2023/08/18 14:13:09;;;;;;;8.03;7.43;;;;;;;;;;5094333;28;20447;-65
2023/08/18 14:15:35;;;;;;;9.07;7.43;;;;;;;;;;5095099;28;20487;-65
2023/08/18 14:18:03;;;;;;;7.90;6.77;;;;;;;;;;5093679;28;20598;-65
2023/08/18 14:20:29;;;;;;;7.87;7.27;;;;;;;;;;5082823;28;20781;-65